createdAt,value
2022-08-16T00:01:24.577Z,96635.16
2022-08-16T00:03:55.304Z,96637.50
2022-08-16T00:06:24.643Z,96634.38
2022-08-16T00:08:53.029Z,96638.72
2022-08-16T00:11:22.260Z,96636.25
2022-08-16T00:13:53.604Z,96652.00
2022-08-16T00:17:05.551Z,96652.91
2022-08-16T00:19:15.256Z,96642.75
2022-08-16T00:21:44.464Z,96643.25
2022-08-16T00:24:13.401Z,96637.72
2022-08-16T00:26:59.789Z,96633.91
2022-08-16T00:29:29.869Z,96628.88
2022-08-16T00:32:05.395Z,96627.84
2022-08-16T00:34:44.607Z,96632.03
2022-08-16T00:37:24.454Z,96612.84
2022-08-16T00:39:57.115Z,96619.94
2022-08-16T00:42:30.423Z,96627.34
2022-08-16T00:45:08.152Z,96628.13
2022-08-16T00:47:37.767Z,96625.47
2022-08-16T00:50:11.398Z,96626.53
2022-08-16T00:52:50.231Z,96631.78
2022-08-16T00:55:22.214Z,96633.72
2022-08-16T00:57:58.730Z,96638.00
2022-08-16T01:00:30.508Z,96639.75
2022-08-16T01:03:02.269Z,96637.38
2022-08-16T01:05:33.849Z,96644.69
2022-08-16T01:08:02.826Z,96651.72
2022-08-16T01:10:52.975Z,96651.06
2022-08-16T01:13:26.700Z,96648.75
2022-08-16T01:16:01.128Z,96645.44
2022-08-16T01:18:40.558Z,96654.72
2022-08-16T01:21:22.125Z,96655.22
2022-08-16T01:24:51.723Z,96655.28
2022-08-16T01:27:15.304Z,96650.47
2022-08-16T01:29:58.253Z,96654.09
2022-08-16T01:32:33.883Z,96645.72
2022-08-16T01:35:07.387Z,96650.72
2022-08-16T01:37:43.647Z,96649.44
2022-08-16T01:40:26.461Z,96653.34
2022-08-16T01:42:57.581Z,96664.16
2022-08-16T01:45:40.795Z,96662.88
2022-08-16T01:48:19.693Z,96659.50
2022-08-16T01:51:08.811Z,96664.47
2022-08-16T01:53:41.222Z,96661.66
2022-08-16T01:56:27.482Z,96674.06
2022-08-16T01:59:00.284Z,96670.16
2022-08-16T02:01:29.552Z,96671.63
2022-08-16T02:04:10.094Z,96662.75
2022-08-16T02:06:45.968Z,96666.84
2022-08-16T02:09:20.903Z,96673.06
2022-08-16T02:11:57.794Z,96670.59
2022-08-16T02:14:30.762Z,96675.31
2022-08-16T02:17:02.690Z,96664.44
2022-08-16T02:19:59.255Z,96655.63
2022-08-16T02:22:34.814Z,96656.13
2022-08-16T02:25:10.686Z,96660.59
2022-08-16T02:27:40.960Z,96658.75
2022-08-16T02:30:37.612Z,96657.25
2022-08-16T02:33:06.176Z,96665.84
2022-08-16T02:35:53.655Z,96680.06
2022-08-16T02:38:26.615Z,96675.28
2022-08-16T02:40:55.488Z,96674.63
2022-08-16T02:43:26.735Z,96682.56
2022-08-16T02:45:59.096Z,96682.84
2022-08-16T02:48:31.189Z,96693.56
2022-08-16T02:51:10.222Z,96687.19
2022-08-16T02:53:43.917Z,96691.09
2022-08-16T02:56:15.928Z,96686.59
2022-08-16T02:58:45.839Z,96683.72
2022-08-16T03:01:24.101Z,96685.47
2022-08-16T03:04:28.811Z,96676.75
2022-08-16T03:06:57.641Z,96683.00
2022-08-16T03:09:44.234Z,96667.34
2022-08-16T03:12:16.335Z,96663.97
2022-08-16T03:14:47.693Z,96665.53
2022-08-16T03:17:19.804Z,96662.75
2022-08-16T03:19:59.519Z,96670.94
2022-08-16T03:22:34.339Z,96658.66
2022-08-16T03:25:10.685Z,96657.91
2022-08-16T03:27:42.763Z,96667.97
2022-08-16T03:30:18.255Z,96654.81
2022-08-16T03:33:17.619Z,96671.91
2022-08-16T03:35:57.214Z,96657.34
2022-08-16T03:38:34.125Z,96665.97
2022-08-16T03:41:14.348Z,96653.72
2022-08-16T03:43:57.253Z,96666.03
2022-08-16T03:46:47.398Z,96667.66
2022-08-16T03:49:36.460Z,96662.28
2022-08-16T03:52:07.964Z,96670.13
2022-08-16T03:54:38.015Z,96670.81
2022-08-16T03:57:06.810Z,96671.69
2022-08-16T03:59:40.154Z,96685.88
2022-08-16T04:02:22.571Z,96670.09
2022-08-16T04:05:04.024Z,96685.97
2022-08-16T04:07:33.707Z,96686.16
2022-08-16T04:10:35.744Z,96689.19
2022-08-16T04:12:55.439Z,96705.72
2022-08-16T04:15:29.560Z,96705.47
2022-08-16T04:18:18.894Z,96717.34
2022-08-16T04:20:49.954Z,96714.78
2022-08-16T04:23:19.786Z,96716.16
2022-08-16T04:25:48.941Z,96716.78
2022-08-16T04:28:51.967Z,96713.41
2022-08-16T04:31:13.308Z,96719.88
2022-08-16T04:33:51.207Z,96717.66
2022-08-16T04:36:24.649Z,96724.44
2022-08-16T04:38:53.740Z,96727.31
2022-08-16T04:41:32.816Z,96734.75
2022-08-16T04:44:31.014Z,96733.38
2022-08-16T04:47:03.162Z,96730.63
2022-08-16T04:49:43.979Z,96735.00
2022-08-16T04:52:33.693Z,96734.66
2022-08-16T04:55:07.444Z,96751.00
2022-08-16T04:57:38.177Z,96742.84
2022-08-16T05:00:30.234Z,96756.47
2022-08-16T05:03:07.535Z,96754.88
2022-08-16T05:05:44.949Z,96749.31
2022-08-16T05:08:30.548Z,96751.97
2022-08-16T05:11:09.914Z,96754.72
2022-08-16T05:13:42.561Z,96746.09
2022-08-16T05:16:24.052Z,96750.97
2022-08-16T05:19:04.923Z,96751.59
2022-08-16T05:21:38.863Z,96754.16
2022-08-16T05:24:12.465Z,96753.88
2022-08-16T05:26:43.439Z,96768.53
2022-08-16T05:29:20.553Z,96755.13
2022-08-16T05:32:05.210Z,96761.84
2022-08-16T05:34:53.524Z,96771.41
2022-08-16T05:37:24.596Z,96768.31
2022-08-16T05:39:55.821Z,96772.78
2022-08-16T05:42:35.658Z,96777.38
2022-08-16T05:45:07.187Z,96765.84
2022-08-16T05:47:43.306Z,96768.84
2022-08-16T05:50:19.216Z,96777.84
2022-08-16T05:52:49.619Z,96780.81
2022-08-16T05:55:20.515Z,96788.34
2022-08-16T05:57:52.777Z,96792.13
2022-08-16T06:00:22.382Z,96786.06
2022-08-16T06:02:52.178Z,96780.53
2022-08-16T06:05:41.579Z,96793.50
2022-08-16T06:08:16.457Z,96791.06
2022-08-16T06:11:01.704Z,96796.31
2022-08-16T06:13:42.335Z,96793.25
2022-08-16T06:16:18.281Z,96789.84
2022-08-16T06:18:48.526Z,96802.34
2022-08-16T06:21:22.693Z,96803.44
2022-08-16T06:23:55.093Z,96796.03
2022-08-16T06:26:37.054Z,96802.94
2022-08-16T06:29:09.230Z,96796.41
2022-08-16T06:31:46.921Z,96795.34
2022-08-16T06:34:56.149Z,96805.66
2022-08-16T06:37:10.607Z,96801.72
2022-08-16T06:39:49.353Z,96797.88
2022-08-16T06:42:30.237Z,96805.31
2022-08-16T06:45:38.013Z,96812.81
2022-08-16T06:48:18.875Z,96811.44
2022-08-16T06:50:52.075Z,96816.31
2022-08-16T06:53:21.579Z,96819.19
2022-08-16T06:56:01.052Z,96822.88
2022-08-16T06:58:43.069Z,96829.19
2022-08-16T07:01:19.120Z,96824.03
2022-08-16T07:03:55.846Z,96823.34
2022-08-16T07:06:31.467Z,96823.28
2022-08-16T07:09:03.019Z,96827.06
2022-08-16T07:11:47.447Z,96820.41
2022-08-16T07:14:27.289Z,96825.72
2022-08-16T07:16:59.879Z,96826.81
2022-08-16T07:19:33.733Z,96822.34
2022-08-16T07:22:37.116Z,96827.84
2022-08-16T07:25:22.820Z,96831.34
2022-08-16T07:27:52.046Z,96829.47
2022-08-16T07:30:39.906Z,96825.00
2022-08-16T07:33:52.132Z,96828.78
2022-08-16T07:36:13.234Z,96833.84
2022-08-16T07:38:50.588Z,96834.81
2022-08-16T07:41:19.140Z,96838.31
2022-08-16T07:43:52.777Z,96837.94
2022-08-16T07:46:38.725Z,96846.88
2022-08-16T07:49:15.743Z,96844.19
2022-08-16T07:51:47.733Z,96848.38
2022-08-16T07:54:21.267Z,96858.31
2022-08-16T07:57:02.958Z,96858.38
2022-08-16T07:59:45.716Z,96854.16
2022-08-16T08:02:19.609Z,96852.59
2022-08-16T08:04:51.668Z,96847.75
2022-08-16T08:07:20.914Z,96849.84
2022-08-16T08:09:51.507Z,96848.38
2022-08-16T08:12:32.068Z,96849.91
2022-08-16T08:15:04.071Z,96843.38
2022-08-16T08:17:42.946Z,96853.84
2022-08-16T08:20:28.596Z,96854.78
2022-08-16T08:23:01.818Z,96853.19
2022-08-16T08:25:55.376Z,96856.59
2022-08-16T08:28:31.893Z,96853.22
2022-08-16T08:31:04.365Z,96854.69
2022-08-16T08:33:43.847Z,96858.88
2022-08-16T08:36:21.933Z,96863.44
2022-08-16T08:38:52.466Z,96859.88
2022-08-16T08:41:28.312Z,96866.75
2022-08-16T08:43:58.620Z,96862.59
2022-08-16T08:46:27.355Z,96870.31
2022-08-16T08:49:02.083Z,96872.19
2022-08-16T08:51:41.221Z,96872.53
2022-08-16T08:54:20.566Z,96875.31
2022-08-16T08:56:53.717Z,96875.78
2022-08-16T08:59:51.297Z,96869.16
2022-08-16T09:02:21.566Z,96863.03
2022-08-16T09:04:59.244Z,96863.16
2022-08-16T09:07:27.664Z,96866.00
2022-08-16T09:10:06.263Z,96870.28
2022-08-16T09:12:38.391Z,96871.81
2022-08-16T09:15:13.761Z,96870.72
2022-08-16T09:17:51.861Z,96877.22
2022-08-16T09:20:25.586Z,96872.47
2022-08-16T09:22:55.254Z,96861.75
2022-08-16T09:25:35.337Z,96865.47
2022-08-16T09:28:09.258Z,96868.97
2022-08-16T09:30:55.811Z,96870.25
2022-08-16T09:33:24.538Z,96865.66
2022-08-16T09:35:54.759Z,96866.22
2022-08-16T09:38:32.466Z,96865.59
2022-08-16T09:41:02.293Z,96862.78
2022-08-16T09:43:59.131Z,96870.53
2022-08-16T09:46:44.945Z,96868.00
2022-08-16T09:49:09.625Z,96859.75
2022-08-16T09:51:42.474Z,96858.41
2022-08-16T09:54:17.095Z,96860.41
2022-08-16T09:56:52.461Z,96861.59
2022-08-16T09:59:22.682Z,96859.22
2022-08-16T10:01:51.802Z,96863.88
2022-08-16T10:04:31.499Z,96859.22
2022-08-16T10:07:15.163Z,96860.59
2022-08-16T10:09:54.588Z,96858.94
2022-08-16T10:12:44.205Z,96853.66
2022-08-16T10:15:17.159Z,96853.47
2022-08-16T10:18:00.071Z,96857.59
2022-08-16T10:20:34.046Z,96856.09
2022-08-16T10:23:07.145Z,96854.84
2022-08-16T10:27:00.647Z,96869.44
2022-08-16T10:28:28.578Z,96859.41
2022-08-16T10:30:59.210Z,96849.09
2022-08-16T10:33:29.610Z,96861.06
2022-08-16T10:36:04.012Z,96860.25
2022-08-16T10:38:36.707Z,96846.72
2022-08-16T10:41:07.035Z,96847.06
2022-08-16T10:43:36.343Z,96845.69
2022-08-16T10:46:40.119Z,96845.22
2022-08-16T10:48:53.542Z,96839.00
2022-08-16T10:51:33.676Z,96842.84
2022-08-16T10:54:28.697Z,96847.22
2022-08-16T10:56:59.220Z,96857.88
2022-08-16T10:59:38.415Z,96850.69
2022-08-16T11:02:59.320Z,96849.44
2022-08-16T11:05:05.958Z,96849.47
2022-08-16T11:07:43.107Z,96836.13
2022-08-16T11:11:05.068Z,96847.13
2022-08-16T11:16:00.781Z,96849.31
2022-08-16T11:18:48.830Z,96848.06
2022-08-16T11:21:28.503Z,96852.44
2022-08-16T11:23:59.640Z,96858.06
2022-08-16T11:26:29.827Z,96851.31
2022-08-16T11:29:15.036Z,96858.41
2022-08-16T11:31:46.058Z,96864.22
2022-08-16T11:34:22.610Z,96865.72
2022-08-16T11:36:59.301Z,96861.53
2022-08-16T11:39:30.166Z,96856.22
2022-08-16T11:42:01.660Z,96859.03
2022-08-16T11:44:56.064Z,96853.03
2022-08-16T11:47:19.457Z,96850.31
2022-08-16T11:49:48.658Z,96855.44
2022-08-16T11:52:18.363Z,96848.97
2022-08-16T11:54:53.753Z,96849.56
2022-08-16T11:57:27.637Z,96845.34
2022-08-16T11:59:57.093Z,96843.91
2022-08-16T12:02:31.919Z,96849.50
2022-08-16T12:05:03.169Z,96851.81
2022-08-16T12:07:31.590Z,96855.88
2022-08-16T12:10:02.245Z,96854.47
2022-08-16T12:12:32.811Z,96848.06
2022-08-16T12:15:02.415Z,96853.66
2022-08-16T12:17:32.478Z,96848.06
2022-08-16T12:20:01.123Z,96852.59
2022-08-16T12:22:29.600Z,96844.47
2022-08-16T12:24:58.960Z,96850.00
2022-08-16T12:27:28.047Z,96848.97
2022-08-16T12:30:00.861Z,96846.44
2022-08-16T12:32:37.663Z,96850.34
2022-08-16T12:35:10.843Z,96851.78
2022-08-16T12:37:39.942Z,96840.38
2022-08-16T12:40:24.419Z,96851.97
2022-08-16T12:42:58.642Z,96856.28
2022-08-16T12:45:35.646Z,96852.38
2022-08-16T12:48:39.632Z,96857.09
2022-08-16T12:51:22.146Z,96845.03
2022-08-16T12:53:54.287Z,96848.81
2022-08-16T12:56:25.662Z,96840.53
2022-08-16T12:58:55.880Z,96844.44
2022-08-16T13:01:29.642Z,96831.94
2022-08-16T13:04:20.601Z,96832.22
2022-08-16T13:06:52.454Z,96830.16
2022-08-16T13:09:26.657Z,96829.31
2022-08-16T13:12:03.434Z,96818.31
2022-08-16T13:14:35.518Z,96811.41
2022-08-16T13:17:09.505Z,96814.38
2022-08-16T13:20:06.068Z,96822.94
2022-08-16T13:22:28.738Z,96817.38
2022-08-16T13:24:59.937Z,96810.53
2022-08-16T13:28:01.622Z,96815.34
2022-08-16T13:30:36.537Z,96817.81
2022-08-16T13:33:11.249Z,96806.59
2022-08-16T13:35:43.230Z,96805.66
2022-08-16T13:38:21.609Z,96807.09
2022-08-16T13:40:56.033Z,96801.66
2022-08-16T13:43:26.385Z,96801.81
2022-08-16T13:45:56.019Z,96798.84
2022-08-16T13:48:26.485Z,96797.75
2022-08-16T13:51:15.800Z,96795.59
2022-08-16T13:53:49.429Z,96794.91
2022-08-16T13:56:25.328Z,96793.78
2022-08-16T13:58:55.507Z,96792.97
2022-08-16T14:01:24.827Z,96798.16
2022-08-16T14:03:55.925Z,96801.88
2022-08-16T14:06:24.474Z,96795.53
2022-08-16T14:08:59.166Z,96804.75
2022-08-16T14:11:34.695Z,96804.56
2022-08-16T14:14:05.740Z,96799.13
2022-08-16T14:16:35.357Z,96799.50
2022-08-16T14:19:08.135Z,96802.91
2022-08-16T14:21:37.323Z,96800.63
2022-08-16T14:24:08.142Z,96799.81
2022-08-16T14:26:55.073Z,96801.56
2022-08-16T14:29:25.769Z,96800.06
2022-08-16T14:31:58.791Z,96811.59
2022-08-16T14:34:29.803Z,96818.50
2022-08-16T14:36:59.577Z,96808.75
2022-08-16T14:39:28.413Z,96807.69
2022-08-16T14:41:57.141Z,96804.59
2022-08-16T14:44:26.222Z,96801.66
2022-08-16T14:46:55.875Z,96806.69
2022-08-16T14:49:25.158Z,96803.50
2022-08-16T14:51:55.198Z,96799.03
2022-08-16T14:54:28.632Z,96801.13
2022-08-16T14:56:59.001Z,96811.09
2022-08-16T14:59:27.518Z,96801.13
2022-08-16T15:02:00.773Z,96802.50
2022-08-16T15:04:39.724Z,96803.72
2022-08-16T15:07:21.595Z,96791.94
2022-08-16T15:10:00.513Z,96796.66
2022-08-16T15:12:33.893Z,96788.53
2022-08-16T15:15:12.931Z,96791.28
2022-08-16T15:17:54.604Z,96800.03
2022-08-16T15:20:26.814Z,96795.09
2022-08-16T15:22:57.717Z,96797.34
2022-08-16T15:25:29.472Z,96792.91
2022-08-16T15:27:58.646Z,96799.84
2022-08-16T15:30:58.089Z,96794.72
2022-08-16T15:33:19.634Z,96792.22
2022-08-16T15:35:50.320Z,96797.25
2022-08-16T15:38:56.783Z,96788.81
2022-08-16T15:41:09.568Z,96787.47
2022-08-16T15:43:41.506Z,96793.09
2022-08-16T15:46:35.331Z,96792.28
2022-08-16T15:49:13.953Z,96785.28
2022-08-16T15:51:43.491Z,96784.78
2022-08-16T15:54:21.191Z,96784.38
2022-08-16T15:57:10.882Z,96783.59
2022-08-16T15:59:48.717Z,96786.59
2022-08-16T16:02:27.998Z,96788.28
2022-08-16T16:05:01.942Z,96783.84
2022-08-16T16:07:33.395Z,96781.88
2022-08-16T16:10:05.635Z,96782.06
2022-08-16T16:12:54.139Z,96774.69
2022-08-16T16:15:29.308Z,96778.28
2022-08-16T16:17:58.892Z,96778.84
2022-08-16T16:20:29.167Z,96780.41
2022-08-16T16:23:01.073Z,96785.31
2022-08-16T16:25:31.144Z,96786.38
2022-08-16T16:28:00.772Z,96786.66
2022-08-16T16:30:32.981Z,96780.59
2022-08-16T16:33:06.714Z,96781.13
2022-08-16T16:35:36.367Z,96780.22
2022-08-16T16:38:08.120Z,96794.25
2022-08-16T16:40:46.303Z,96789.47
2022-08-16T16:43:16.140Z,96785.03
2022-08-16T16:45:45.005Z,96787.41
2022-08-16T16:48:13.715Z,96784.84
2022-08-16T16:50:46.959Z,96784.00
2022-08-16T16:53:17.396Z,96789.25
2022-08-16T16:55:51.790Z,96785.00
2022-08-16T16:58:38.860Z,96794.75
2022-08-16T17:01:09.448Z,96791.50
2022-08-16T17:03:38.504Z,96799.75
2022-08-16T17:06:10.149Z,96792.88
2022-08-16T17:08:40.642Z,96800.88
2022-08-16T17:11:11.677Z,96800.13
2022-08-16T17:13:41.888Z,96801.03
2022-08-16T17:16:18.606Z,96795.94
2022-08-16T17:19:15.531Z,96802.81
2022-08-16T17:21:36.863Z,96806.16
2022-08-16T17:24:17.658Z,96806.25
2022-08-16T17:26:49.324Z,96808.66
2022-08-16T17:29:30.701Z,96804.22
2022-08-16T17:32:02.607Z,96810.19
2022-08-16T17:34:50.920Z,96813.09
2022-08-16T17:37:22.112Z,96820.25
2022-08-16T17:40:03.811Z,96820.97
2022-08-16T17:42:33.844Z,96829.56
2022-08-16T17:45:02.179Z,96822.69
2022-08-16T17:47:30.526Z,96820.19
2022-08-16T17:49:58.945Z,96826.41
2022-08-16T17:52:28.801Z,96823.22
2022-08-16T17:54:58.251Z,96836.47
2022-08-16T17:57:27.507Z,96834.56
2022-08-16T17:59:58.459Z,96833.38
2022-08-16T18:02:43.776Z,96841.59
2022-08-16T18:05:16.162Z,96842.59
2022-08-16T18:07:46.382Z,96850.09
2022-08-16T18:10:18.012Z,96845.50
2022-08-16T18:13:01.850Z,96853.78
2022-08-16T18:15:32.882Z,96857.31
2022-08-16T18:18:01.989Z,96862.94
2022-08-16T18:20:47.785Z,96859.22
2022-08-16T18:23:18.972Z,96867.47
2022-08-16T18:25:53.007Z,96871.75
2022-08-16T18:28:21.988Z,96873.28
2022-08-16T18:30:56.201Z,96880.84
2022-08-16T18:33:28.659Z,96879.31
2022-08-16T18:35:58.055Z,96884.06
2022-08-16T18:38:27.045Z,96885.00
2022-08-16T18:40:56.127Z,96887.25
2022-08-16T18:44:23.058Z,96897.97
2022-08-16T18:46:15.410Z,96896.69
2022-08-16T18:48:44.112Z,96899.09
2022-08-16T18:51:19.148Z,96902.47
2022-08-16T18:53:49.854Z,96905.34
2022-08-16T18:56:18.118Z,96909.53
2022-08-16T18:58:46.587Z,96911.84
2022-08-16T19:01:16.441Z,96917.53
2022-08-16T19:03:44.887Z,96917.84
2022-08-16T19:06:15.313Z,96912.06
2022-08-16T19:08:45.656Z,96920.22
2022-08-16T19:11:19.004Z,96921.47
2022-08-16T19:13:47.732Z,96922.34
2022-08-16T19:16:17.758Z,96932.00
2022-08-16T19:18:50.642Z,96922.63
2022-08-16T19:21:19.144Z,96924.69
2022-08-16T19:23:47.411Z,96930.28
2022-08-16T19:26:25.749Z,96930.72
2022-08-16T19:28:58.758Z,96938.22
2022-08-16T19:31:32.067Z,96933.00
2022-08-16T19:34:00.533Z,96928.81
2022-08-16T19:36:33.981Z,96941.81
2022-08-16T19:39:08.825Z,96939.97
2022-08-16T19:41:40.227Z,96937.88
2022-08-16T19:44:08.946Z,96955.19
2022-08-16T19:46:38.607Z,96946.75
2022-08-16T19:49:07.238Z,96951.75
2022-08-16T19:51:35.942Z,96953.56
2022-08-16T19:54:06.779Z,96957.63
2022-08-16T19:56:36.465Z,96959.28
2022-08-16T19:59:21.934Z,96962.19
2022-08-16T20:01:53.065Z,96959.34
2022-08-16T20:04:22.663Z,96967.72
2022-08-16T20:06:52.520Z,96967.44
2022-08-16T20:09:21.457Z,96972.38
2022-08-16T20:11:52.485Z,96971.19
2022-08-16T20:14:25.506Z,96978.41
2022-08-16T20:16:59.178Z,96968.22
2022-08-16T20:19:28.365Z,96973.03
2022-08-16T20:21:59.188Z,96967.41
2022-08-16T20:24:34.703Z,96969.81
2022-08-16T20:27:07.472Z,96968.72
2022-08-16T20:29:37.111Z,96967.09
2022-08-16T20:32:08.452Z,96963.53
2022-08-16T20:34:36.937Z,96965.31
2022-08-16T20:37:06.198Z,96966.63
2022-08-16T20:39:34.717Z,96965.09
2022-08-16T20:42:03.038Z,96974.53
2022-08-16T20:44:31.334Z,96976.94
2022-08-16T20:46:59.594Z,96978.19
2022-08-16T20:49:29.540Z,96974.19
2022-08-16T20:51:59.681Z,96983.50
2022-08-16T20:54:28.644Z,96970.66
2022-08-16T20:56:56.893Z,96967.63
2022-08-16T20:59:25.156Z,96969.50
2022-08-16T21:01:53.617Z,96970.75
2022-08-16T21:04:23.443Z,96979.25
2022-08-16T21:06:55.141Z,96985.31
2022-08-16T21:09:25.139Z,96969.38
2022-08-16T21:11:54.374Z,96973.88
2022-08-16T21:14:22.724Z,96983.84
2022-08-16T21:16:51.199Z,96980.63
2022-08-16T21:19:20.033Z,96970.16
2022-08-16T21:21:48.523Z,96979.22
2022-08-16T21:24:18.193Z,96980.94
2022-08-16T21:26:50.976Z,96981.91
2022-08-16T21:29:27.890Z,96983.28
2022-08-16T21:32:11.886Z,96983.66
2022-08-16T21:34:40.393Z,96989.44
2022-08-16T21:37:08.627Z,96979.63
2022-08-16T21:39:38.360Z,96988.13
2022-08-16T21:42:11.936Z,96988.19
2022-08-16T21:44:40.776Z,96986.38
2022-08-16T21:47:09.258Z,96985.72
2022-08-16T21:49:37.805Z,96990.75
2022-08-16T21:52:07.604Z,96992.13
2022-08-16T21:54:36.405Z,97001.47
2022-08-16T21:57:10.739Z,96994.34
2022-08-16T21:59:39.631Z,96995.69
2022-08-16T22:02:08.151Z,96995.78
2022-08-16T22:04:38.913Z,96997.34
2022-08-16T22:07:08.142Z,96996.03
2022-08-16T22:09:36.901Z,97007.22
2022-08-16T22:12:07.502Z,97005.31
2022-08-16T22:14:35.720Z,97001.44
2022-08-16T22:17:03.949Z,97003.31
2022-08-16T22:19:32.158Z,97012.41
2022-08-16T22:22:01.711Z,97009.66
2022-08-16T22:24:30.157Z,97012.16
2022-08-16T22:26:58.365Z,97006.66
2022-08-16T22:29:27.951Z,97006.88
2022-08-16T22:31:56.178Z,97012.09
2022-08-16T22:34:24.518Z,97008.19
2022-08-16T22:36:53.773Z,97003.22
2022-08-16T22:39:21.960Z,97010.16
2022-08-16T22:41:50.514Z,97005.97
2022-08-16T22:44:18.980Z,97004.81
2022-08-16T22:46:48.644Z,97001.03
2022-08-16T22:49:17.069Z,97004.44
2022-08-16T22:51:45.272Z,96999.03
2022-08-16T22:54:47.413Z,97004.59
2022-08-16T22:57:01.963Z,96999.84
2022-08-16T22:59:32.007Z,97005.03
2022-08-16T23:02:04.349Z,96994.28
2022-08-16T23:04:32.904Z,96992.06
2022-08-16T23:07:01.220Z,96997.31
2022-08-16T23:09:30.421Z,97001.25
2022-08-16T23:12:02.729Z,97000.06
2022-08-16T23:14:31.040Z,96991.19
2022-08-16T23:16:59.214Z,96996.97
2022-08-16T23:19:29.540Z,96989.19
2022-08-16T23:21:58.059Z,96988.72
2022-08-16T23:24:27.492Z,96987.28
2022-08-16T23:26:55.682Z,96989.00
2022-08-16T23:29:26.499Z,96982.06
2022-08-16T23:31:56.899Z,96979.34
2022-08-16T23:34:26.848Z,96972.75
2022-08-16T23:36:56.922Z,96972.75
2022-08-16T23:39:25.597Z,96982.78
2022-08-16T23:41:53.892Z,96976.47
2022-08-16T23:44:56.369Z,96969.28
2022-08-16T23:47:10.967Z,96985.69
2022-08-16T23:49:56.345Z,96977.66
2022-08-16T23:52:40.576Z,96964.88
2022-08-16T23:55:17.657Z,96974.53
2022-08-16T23:57:47.412Z,96977.00
